Time;durP1;ratioP1;P1;durP2;ratioP2;P2;SDS_P1;SDS_P2;PMS_P1;PMS_P2;Temp;Humidity;BMP_temperature;BMP_pressure;BME280_temperature;BME280_humidity;BME280_pressure;Samples;Min_cycle;Max_cycle;Signal;HPM_P1;HPM_P2
2023/12/31 00:01:36;;;;;;;2.22;1.17;;;;;;;8.61;100.00;100397.03;5035542;28;20049;-70
2023/12/31 00:04:05;;;;;;;3.55;1.20;;;;;;;8.67;100.00;100396.84;5040507;28;20391;-70
2023/12/31 00:06:32;;;;;;;2.72;1.13;;;;;;;8.74;100.00;100387.03;5057811;28;20656;-70
2023/12/31 00:08:59;;;;;;;4.10;1.23;;;;;;;8.76;100.00;100382.59;5047643;28;20048;-71
2023/12/31 00:11:26;;;;;;;2.67;1.17;;;;;;;8.79;100.00;100375.47;5048306;28;20123;-70
2023/12/31 00:13:53;;;;;;;2.55;1.10;;;;;;;8.81;100.00;100364.91;5046721;28;20061;-71
2023/12/31 00:16:21;;;;;;;2.15;1.00;;;;;;;8.84;100.00;100370.06;5047195;28;20043;-70
2023/12/31 00:18:48;;;;;;;2.63;1.23;;;;;;;8.88;100.00;100360.31;5058753;28;20045;-70
2023/12/31 00:21:15;;;;;;;2.13;0.90;;;;;;;8.92;100.00;100351.44;5029874;28;20049;-71
2023/12/31 00:23:42;;;;;;;2.83;1.23;;;;;;;8.94;100.00;100345.22;5020751;28;20639;-71
2023/12/31 00:26:09;;;;;;;3.95;1.33;;;;;;;9.01;100.00;100340.63;5061380;28;20120;-71
2023/12/31 00:28:39;;;;;;;1.98;0.80;;;;;;;9.06;100.00;100332.59;5022771;28;20551;-71
2023/12/31 00:31:06;;;;;;;2.15;1.10;;;;;;;9.10;100.00;100328.97;5037661;28;20076;-70
2023/12/31 00:33:33;;;;;;;2.17;0.55;;;;;;;9.13;100.00;100324.47;5051047;28;20045;-70
2023/12/31 00:36:00;;;;;;;1.00;0.55;;;;;;;9.16;100.00;100308.56;5064016;28;20044;-70
2023/12/31 00:38:28;;;;;;;2.33;1.30;;;;;;;9.18;100.00;100311.16;5031622;28;20464;-71
2023/12/31 00:40:55;;;;;;;2.92;1.20;;;;;;;9.22;100.00;100317.19;5014705;28;20076;-71
2023/12/31 00:43:22;;;;;;;1.95;0.93;;;;;;;9.23;100.00;100309.22;5051210;28;20092;-70
2023/12/31 00:45:50;;;;;;;3.22;1.38;;;;;;;9.25;100.00;100304.78;5043578;28;20429;-70
2023/12/31 00:48:17;;;;;;;3.22;1.52;;;;;;;9.26;100.00;100292.50;5042441;28;20059;-71
2023/12/31 00:50:44;;;;;;;2.10;1.20;;;;;;;9.24;100.00;100295.16;5051648;28;20467;-70
2023/12/31 00:53:11;;;;;;;2.08;1.00;;;;;;;9.23;100.00;100288.19;5033890;28;20408;-70
2023/12/31 00:55:39;;;;;;;2.08;1.38;;;;;;;9.12;100.00;100274.53;5033329;28;20049;-70
2023/12/31 00:58:07;;;;;;;2.10;1.20;;;;;;;9.03;100.00;100278.34;5062061;28;20045;-70
2023/12/31 01:00:34;;;;;;;1.52;0.90;;;;;;;8.91;100.00;100263.81;5049605;28;20048;-70
2023/12/31 01:03:01;;;;;;;1.92;0.90;;;;;;;8.81;100.00;100265.91;5040549;28;20045;-70
2023/12/31 01:05:29;;;;;;;2.40;1.17;;;;;;;8.73;100.00;100261.78;5051518;28;20051;-70
2023/12/31 01:07:56;;;;;;;1.50;0.90;;;;;;;8.66;100.00;100256.72;5032722;28;20328;-70
2023/12/31 01:10:24;;;;;;;2.90;0.88;;;;;;;8.62;100.00;100251.63;5020833;28;20417;-70
2023/12/31 01:12:51;;;;;;;1.92;0.90;;;;;;;8.55;100.00;100237.81;5031376;28;20056;-70
2023/12/31 01:15:19;;;;;;;1.30;0.90;;;;;;;8.48;100.00;100234.50;5038819;28;20037;-70
2023/12/31 01:17:46;;;;;;;1.73;0.80;;;;;;;8.43;100.00;100233.78;5061738;28;20532;-70
2023/12/31 01:20:14;;;;;;;1.35;0.65;;;;;;;8.38;100.00;100225.16;5028468;28;20148;-70
2023/12/31 01:22:41;;;;;;;2.90;1.10;;;;;;;8.33;100.00;100220.06;5047909;28;20114;-71
2023/12/31 01:25:08;;;;;;;2.67;0.90;;;;;;;8.29;100.00;100214.94;5055447;28;20497;-70
2023/12/31 01:27:35;;;;;;;1.90;1.10;;;;;;;8.24;100.00;100208.06;5033414;28;20601;-70
2023/12/31 01:30:03;;;;;;;1.90;0.90;;;;;;;8.23;100.00;100201.13;5042945;28;20049;-70
2023/12/31 01:32:31;;;;;;;2.25;1.10;;;;;;;8.23;100.00;100184.50;5029178;28;20125;-70
2023/12/31 01:34:59;;;;;;;2.45;0.90;;;;;;;8.19;100.00;100178.47;5048649;28;20037;-70
2023/12/31 01:37:26;;;;;;;2.15;0.90;;;;;;;8.19;100.00;100178.47;5028680;28;20068;-70
2023/12/31 01:39:57;;;;;;;2.13;0.90;;;;;;;8.19;100.00;100191.59;5066981;28;20041;-70
2023/12/31 01:42:24;;;;;;;2.15;0.98;;;;;;;8.18;100.00;100183.78;5051081;28;20132;-70
2023/12/31 01:44:52;;;;;;;1.95;1.17;;;;;;;8.16;100.00;100178.56;5050506;28;20049;-70
2023/12/31 01:47:19;;;;;;;1.65;1.08;;;;;;;8.15;100.00;100173.38;5032713;28;20068;-70
2023/12/31 01:49:50;;;;;;;1.98;1.00;;;;;;;8.13;100.00;100172.56;5068230;28;20050;-70
2023/12/31 01:52:18;;;;;;;1.95;1.00;;;;;;;8.11;100.00;100169.97;5045604;28;20601;-70
2023/12/31 01:54:45;;;;;;;2.67;1.00;;;;;;;8.10;100.00;100170.88;5047951;28;20041;-70
2023/12/31 01:57:15;;;;;;;4.72;1.20;;;;;;;8.08;100.00;100170.06;5049980;28;20048;-70
2023/12/31 01:59:43;;;;;;;2.58;1.10;;;;;;;8.05;100.00;100160.53;5050228;28;20052;-70
2023/12/31 02:02:10;;;;;;;2.88;1.38;;;;;;;8.06;100.00;100161.38;5032596;28;20048;-70
2023/12/31 02:04:37;;;;;;;3.22;1.10;;;;;;;8.06;100.00;100158.75;5036770;28;20045;-70
2023/12/31 02:07:04;;;;;;;2.63;1.02;;;;;;;8.04;100.00;100156.19;5037968;28;20082;-70
2023/12/31 02:09:32;;;;;;;3.58;1.20;;;;;;;8.04;100.00;100144.81;5065842;28;20087;-70
2023/12/31 02:11:59;;;;;;;1.40;0.90;;;;;;;8.03;100.00;100137.88;5042804;28;20046;-70
2023/12/31 02:14:27;;;;;;;2.17;1.17;;;;;;;8.01;100.00;100134.41;5050432;28;20048;-71
2023/12/31 02:16:54;;;;;;;1.13;0.90;;;;;;;7.99;100.00;100128.34;5056866;28;20225;-70
2023/12/31 02:19:21;;;;;;;1.88;0.95;;;;;;;7.97;100.00;100112.66;5065872;28;20072;-70
2023/12/31 02:21:48;;;;;;;3.50;1.17;;;;;;;7.96;100.00;100116.19;5034097;28;20036;-70
2023/12/31 02:24:20;;;;;;;2.15;1.10;;;;;;;7.99;100.00;100116.06;5031742;28;20041;-70
2023/12/31 02:26:47;;;;;;;3.50;1.10;;;;;;;8.00;100.00;100111.69;5049660;28;20052;-71
2023/12/31 02:29:14;;;;;;;2.13;0.98;;;;;;;8.01;100.00;100102.91;5029141;28;20049;-70
2023/12/31 02:31:42;;;;;;;2.78;1.10;;;;;;;8.00;100.00;100091.53;5046621;28;20506;-71
2023/12/31 02:34:09;;;;;;;1.83;0.90;;;;;;;7.99;100.00;100094.22;5034444;28;20584;-71
2023/12/31 02:36:36;;;;;;;1.95;1.10;;;;;;;7.99;100.00;100094.22;5028983;28;20063;-71
2023/12/31 02:39:03;;;;;;;1.33;0.90;;;;;;;7.98;100.00;100088.13;5030049;28;20567;-71
2023/12/31 02:41:32;;;;;;;1.63;0.90;;;;;;;7.99;100.00;100078.47;5048504;28;20040;-70
2023/12/31 02:43:59;;;;;;;2.28;0.90;;;;;;;8.01;100.00;100074.03;5048723;28;20044;-70
2023/12/31 02:46:27;;;;;;;1.15;0.80;;;;;;;8.03;100.00;100074.88;5029233;28;20116;-70
2023/12/31 02:48:54;;;;;;;1.75;1.05;;;;;;;8.06;100.00;100074.75;5048739;28;20068;-70
2023/12/31 02:51:22;;;;;;;1.52;0.90;;;;;;;8.07;100.00;100066.84;5031007;28;20041;-70
2023/12/31 02:53:49;;;;;;;1.13;0.95;;;;;;;8.08;100.00;100058.06;5041208;28;20131;-70
2023/12/31 02:56:16;;;;;;;2.35;1.05;;;;;;;8.09;100.00;100054.50;5047653;28;20336;-71
2023/12/31 02:58:43;;;;;;;1.95;0.77;;;;;;;8.10;100.00;100042.25;5029605;28;20492;-70
2023/12/31 03:01:11;;;;;;;2.42;0.88;;;;;;;8.09;100.00;100030.88;5043572;28;20039;-70
2023/12/31 03:03:38;;;;;;;2.15;1.00;;;;;;;8.08;100.00;100034.44;5027995;28;20041;-70
2023/12/31 03:06:05;;;;;;;2.67;0.98;;;;;;;8.08;100.00;100033.56;5024104;28;20094;-71
2023/12/31 03:08:33;;;;;;;2.38;0.95;;;;;;;8.08;100.00;100031.81;5032240;28;20061;-70
2023/12/31 03:11:00;;;;;;;2.75;0.80;;;;;;;8.11;100.00;100024.72;5021521;28;20090;-70
2023/12/31 03:13:30;;;;;;;1.55;0.90;;;;;;;8.16;100.00;100020.19;5047383;28;20044;-70
2023/12/31 03:16:05;;;;;;;2.45;0.88;;;;;;;8.19;100.00;100006.97;5048447;28;20164;-71
2023/12/31 03:18:33;;;;;;;2.33;0.80;;;;;;;8.23;100.00;100014.69;5046921;28;20074;-70
2023/12/31 03:21:00;;;;;;;1.77;0.90;;;;;;;8.21;100.00;100006.00;5044235;28;20041;-70
2023/12/31 03:23:27;;;;;;;1.40;0.82;;;;;;;8.21;99.69;99995.50;5031164;28;20040;-71
2023/12/31 03:25:54;;;;;;;2.90;1.00;;;;;;;8.21;99.51;99994.63;5031385;28;20068;-70
2023/12/31 03:28:22;;;;;;;1.58;1.00;;;;;;;8.20;98.75;99985.91;5037839;28;20103;-70
2023/12/31 03:30:49;;;;;;;1.70;1.10;;;;;;;8.22;98.69;99988.44;5027311;28;20045;-70
2023/12/31 03:33:16;;;;;;;2.13;1.00;;;;;;;8.21;98.13;99973.59;5028348;28;20049;-70
2023/12/31 03:35:45;;;;;;;1.40;0.93;;;;;;;8.22;98.53;99976.19;5029874;28;20080;-71
2023/12/31 03:38:13;;;;;;;2.13;1.00;;;;;;;8.21;98.74;99956.09;5047557;28;20124;-71
2023/12/31 03:40:41;;;;;;;3.60;1.17;;;;;;;8.22;98.61;99951.69;5049358;28;20048;-70
2023/12/31 03:43:10;;;;;;;2.17;1.00;;;;;;;8.22;98.63;99947.31;5014611;28;20045;-70
2023/12/31 03:45:39;;;;;;;2.10;1.00;;;;;;;8.22;98.38;99938.56;5068356;28;20056;-70
2023/12/31 03:48:07;;;;;;;1.40;0.90;;;;;;;8.21;97.89;99929.84;5047563;28;20041;-70
2023/12/31 03:50:34;;;;;;;3.38;1.20;;;;;;;8.22;97.34;99921.06;5048269;28;20045;-70
2023/12/31 03:53:01;;;;;;;2.22;1.13;;;;;;;8.21;97.30;99916.72;5047251;28;20041;-70
2023/12/31 03:55:28;;;;;;;2.47;1.50;;;;;;;8.23;97.17;99908.78;5029695;28;20131;-70
2023/12/31 03:57:55;;;;;;;2.83;1.15;;;;;;;8.21;97.32;99898.34;5046921;28;20052;-70
2023/12/31 04:00:23;;;;;;;2.50;1.05;;;;;;;8.22;96.97;99894.81;5048989;28;20421;-70
2023/12/31 04:02:50;;;;;;;2.03;0.98;;;;;;;8.23;96.97;99888.66;5048848;28;20045;-70
2023/12/31 04:05:17;;;;;;;2.45;1.02;;;;;;;8.23;97.38;99890.41;5052111;28;20044;-70
2023/12/31 04:07:45;;;;;;;2.83;1.35;;;;;;;8.21;96.88;99874.72;5046078;28;20049;-70
2023/12/31 04:10:14;;;;;;;1.85;0.73;;;;;;;8.21;97.06;99863.31;5048374;28;20559;-71
2023/12/31 04:12:41;;;;;;;1.33;0.95;;;;;;;8.22;96.24;99851.91;5031298;28;20049;-70
2023/12/31 04:15:08;;;;;;;1.33;0.90;;;;;;;8.20;96.93;99848.47;5030211;28;20063;-71
2023/12/31 04:17:37;;;;;;;3.28;1.02;;;;;;;8.20;96.86;99845.84;5048460;28;20041;-70
2023/12/31 04:20:05;;;;;;;1.60;0.95;;;;;;;8.21;96.41;99839.69;5047882;28;20048;-70
2023/12/31 04:22:33;;;;;;;1.83;1.00;;;;;;;8.21;96.36;99830.06;5031652;28;20475;-70
2023/12/31 04:25:01;;;;;;;2.03;1.00;;;;;;;8.21;96.24;99831.81;5052635;28;20045;-70
2023/12/31 04:27:31;;;;;;;2.08;0.90;;;;;;;8.23;96.62;99824.75;5026833;28;20497;-71
2023/12/31 04:29:58;;;;;;;4.60;0.93;;;;;;;8.23;96.25;99816.88;5030183;28;20068;-71
2023/12/31 04:32:25;;;;;;;1.27;0.90;;;;;;;8.22;96.29;99805.53;5030569;28;20056;-70
2023/12/31 04:34:52;;;;;;;2.08;0.98;;;;;;;8.24;96.40;99808.09;5047649;28;20053;-71
2023/12/31 04:37:20;;;;;;;2.33;0.98;;;;;;;8.26;95.74;99808.03;5045491;28;20037;-70
2023/12/31 04:39:48;;;;;;;1.50;1.00;;;;;;;8.25;96.40;99796.69;5030421;28;20051;-71
2023/12/31 04:42:15;;;;;;;2.15;0.88;;;;;;;8.27;95.97;99797.47;5062915;28;20114;-71
2023/12/31 04:44:43;;;;;;;1.77;1.10;;;;;;;8.30;96.18;99786.84;5048853;28;20076;-71
2023/12/31 04:47:10;;;;;;;1.90;1.15;;;;;;;8.32;96.19;99771.88;5029496;28;20049;-71
2023/12/31 04:49:37;;;;;;;2.63;1.00;;;;;;;8.31;96.32;99769.31;5029185;28;20132;-71
2023/12/31 04:52:04;;;;;;;6.50;4.43;;;;;;;8.32;96.23;99769.25;5047221;28;20102;-70
2023/12/31 04:54:31;;;;;;;2.88;1.20;;;;;;;8.34;96.23;99763.97;5046838;28;20083;-71
2023/12/31 04:56:58;;;;;;;1.45;1.00;;;;;;;8.35;96.48;99770.91;5025533;28;20462;-71
2023/12/31 04:59:26;;;;;;;1.85;0.95;;;;;;;8.33;96.37;99770.97;5067161;28;20113;-71
2023/12/31 05:01:53;;;;;;;1.63;1.10;;;;;;;8.34;96.93;99766.59;5067157;28;20113;-71
2023/12/31 05:04:20;;;;;;;3.28;1.20;;;;;;;8.32;96.83;99765.78;5059872;28;20195;-71
2023/12/31 05:06:47;;;;;;;2.35;1.10;;;;;;;8.30;96.83;99765.00;5062107;28;20183;-71
2023/12/31 05:09:14;;;;;;;2.28;1.38;;;;;;;8.28;97.07;99746.69;5030214;28;20118;-71
2023/12/31 05:11:41;;;;;;;2.40;1.20;;;;;;;8.24;97.38;99742.44;5054010;28;20132;-70
2023/12/31 05:14:08;;;;;;;2.40;1.20;;;;;;;8.22;97.66;99733.75;5051371;28;20037;-71
2023/12/31 05:16:35;;;;;;;2.63;1.20;;;;;;;8.19;97.96;99732.13;5051616;28;20095;-71
2023/12/31 05:19:02;;;;;;;2.13;1.40;;;;;;;8.18;98.43;99730.41;5051911;28;20501;-70
2023/12/31 05:21:30;;;;;;;2.35;1.20;;;;;;;8.19;98.46;99726.03;5069653;28;20151;-70
2023/12/31 05:23:57;;;;;;;3.17;1.60;;;;;;;8.17;98.98;99712.09;5064248;28;20048;-70
2023/12/31 05:26:24;;;;;;;2.20;1.80;;;;;;;8.17;99.15;99709.47;5052775;28;20048;-71
2023/12/31 05:28:52;;;;;;;2.38;1.80;;;;;;;8.16;99.55;99700.72;5049869;28;20048;-70
2023/12/31 05:31:19;;;;;;;2.97;1.70;;;;;;;8.15;99.67;99703.41;5050491;28;20041;-70
2023/12/31 05:33:47;;;;;;;4.20;1.70;;;;;;;8.15;99.97;99703.41;5051544;28;20041;-71
2023/12/31 05:36:14;;;;;;;3.13;2.20;;;;;;;8.13;100.00;99695.63;5068733;28;20552;-71
2023/12/31 05:38:41;;;;;;;3.15;1.70;;;;;;;8.14;100.00;99697.28;5057815;28;20713;-71
2023/12/31 05:41:08;;;;;;;3.70;1.70;;;;;;;8.11;100.00;99686.94;5050121;28;20048;-70
2023/12/31 05:43:35;;;;;;;3.13;2.05;;;;;;;8.09;100.00;99681.72;5060922;28;20049;-70
2023/12/31 05:46:02;;;;;;;3.45;1.92;;;;;;;8.08;100.00;99677.41;5063897;28;20048;-70
2023/12/31 05:48:29;;;;;;;3.75;2.10;;;;;;;8.09;100.00;99668.59;5070870;28;20044;-71
2023/12/31 05:50:58;;;;;;;3.67;2.20;;;;;;;8.14;100.00;99660.53;5068645;28;20087;-71
2023/12/31 05:53:25;;;;;;;4.07;2.13;;;;;;;8.16;100.00;99658.72;5049975;28;20702;-70
2023/12/31 05:55:52;;;;;;;4.25;2.50;;;;;;;8.19;100.00;99657.75;5065290;28;20128;-70
2023/12/31 05:58:19;;;;;;;2.90;2.42;;;;;;;8.22;100.00;99650.63;5050298;28;20044;-70
2023/12/31 06:00:46;;;;;;;3.85;2.22;;;;;;;8.26;100.00;99634.72;5056500;28;20040;-70
2023/12/31 06:03:14;;;;;;;2.65;2.15;;;;;;;8.26;100.00;99622.47;5050227;28;20041;-71
2023/12/31 06:05:41;;;;;;;3.72;2.35;;;;;;;8.29;100.00;99626.72;5057288;28;20055;-71
2023/12/31 06:08:08;;;;;;;4.95;2.45;;;;;;;8.31;100.00;99636.25;5037242;28;20674;-70
2023/12/31 06:10:37;;;;;;;3.63;2.10;;;;;;;8.30;100.00;99629.28;5043492;28;20765;-70
2023/12/31 06:13:08;;;;;;;3.90;2.80;;;;;;;8.32;100.00;99632.72;5047353;28;20673;-70
2023/12/31 06:15:39;;;;;;;3.50;2.60;;;;;;;8.34;100.00;99623.00;5048391;28;20123;-70
2023/12/31 06:18:07;;;;;;;3.80;2.50;;;;;;;8.34;100.00;99615.13;5049352;28;20045;-70
2023/12/31 06:20:34;;;;;;;5.22;2.40;;;;;;;8.36;100.00;99615.94;5047064;28;20059;-70
2023/12/31 06:23:02;;;;;;;4.25;2.30;;;;;;;8.37;100.00;99611.50;5048972;28;20048;-70
2023/12/31 06:25:30;;;;;;;3.78;2.50;;;;;;;8.38;100.00;99631.59;5048994;28;20113;-71
2023/12/31 06:27:58;;;;;;;2.42;2.17;;;;;;;8.38;100.00;99621.09;5048222;28;20041;-70
2023/12/31 06:30:26;;;;;;;4.57;2.78;;;;;;;8.39;100.00;99615.78;5048416;28;20072;-70
2023/12/31 06:32:54;;;;;;;4.15;2.30;;;;;;;8.38;100.00;99606.22;5049387;28;20055;-70
2023/12/31 06:35:21;;;;;;;5.47;2.40;;;;;;;8.38;100.00;99600.09;5047891;28;20047;-70
2023/12/31 06:37:49;;;;;;;2.88;2.30;;;;;;;8.37;100.00;99593.13;5048493;28;20663;-71
2023/12/31 06:40:17;;;;;;;3.75;2.00;;;;;;;8.37;100.00;99588.75;5058608;28;20114;-70
2023/12/31 06:42:45;;;;;;;2.97;2.10;;;;;;;8.36;100.00;99596.66;5049215;28;20119;-70
2023/12/31 06:45:13;;;;;;;4.43;2.25;;;;;;;8.38;99.99;99610.59;5049110;28;20041;-70
2023/12/31 06:47:41;;;;;;;4.80;2.70;;;;;;;8.36;99.97;99601.91;5057123;28;20076;-70
2023/12/31 06:50:11;;;;;;;2.75;1.88;;;;;;;8.33;100.00;99595.03;5053105;28;20099;-70
2023/12/31 06:52:39;;;;;;;3.40;2.70;;;;;;;8.33;100.00;99599.44;5049279;28;20053;-70
2023/12/31 06:55:10;;;;;;;3.22;2.03;;;;;;;8.30;100.00;99589.91;5032617;28;20045;-70
2023/12/31 06:57:39;;;;;;;3.78;2.22;;;;;;;8.29;100.00;99584.72;5032345;28;20500;-70
2023/12/31 07:00:08;;;;;;;5.25;2.00;;;;;;;8.27;100.00;99582.16;5031790;28;20037;-70
2023/12/31 07:02:35;;;;;;;3.08;2.17;;;;;;;8.28;100.00;99578.63;5049027;28;20067;-70
2023/12/31 07:05:03;;;;;;;3.20;2.22;;;;;;;8.28;100.00;99570.75;5049908;28;21551;-70
2023/12/31 07:07:31;;;;;;;2.67;2.00;;;;;;;8.30;100.00;99560.16;5040677;28;20041;-70
2023/12/31 07:09:58;;;;;;;4.63;3.08;;;;;;;8.32;100.00;99547.84;5045643;28;20078;-71
2023/12/31 07:12:26;;;;;;;5.30;2.33;;;;;;;8.32;100.00;99542.59;5063676;28;20044;-70
2023/12/31 07:14:55;;;;;;;2.40;1.98;;;;;;;8.34;100.00;99548.63;5050822;28;20056;-70
2023/12/31 07:17:23;;;;;;;3.22;2.08;;;;;;;8.34;100.00;99549.47;5034160;28;20045;-70
2023/12/31 07:19:58;;;;;;;4.07;2.50;;;;;;;8.34;99.79;99532.88;5055317;28;20122;-70
2023/12/31 07:22:27;;;;;;;4.72;2.20;;;;;;;8.32;99.87;99538.19;5047274;28;20041;-70
2023/12/31 07:24:55;;;;;;;2.92;2.00;;;;;;;8.34;100.00;99540.75;5033179;28;20037;-70
2023/12/31 07:27:23;;;;;;;3.72;2.17;;;;;;;8.36;100.00;99538.91;5043512;28;20034;-70
2023/12/31 07:29:51;;;;;;;4.15;2.60;;;;;;;8.38;100.00;99531.81;5045374;28;20059;-70
2023/12/31 07:32:18;;;;;;;3.83;2.35;;;;;;;8.42;100.00;99530.78;5029974;28;20107;-70
2023/12/31 07:34:45;;;;;;;3.03;2.30;;;;;;;8.43;99.93;99521.13;5048405;28;20048;-70
2023/12/31 07:37:12;;;;;;;3.20;2.45;;;;;;;8.45;100.00;99522.75;5047782;28;20080;-70
2023/12/31 07:39:42;;;;;;;3.15;2.28;;;;;;;8.48;99.70;99525.28;5047509;28;20790;-70
2023/12/31 07:42:09;;;;;;;4.07;2.55;;;;;;;8.50;99.44;99518.19;5030521;28;20056;-70
2023/12/31 07:44:37;;;;;;;3.65;2.90;;;;;;;8.53;99.52;99523.34;5047460;28;20512;-70
2023/12/31 07:47:04;;;;;;;3.38;2.70;;;;;;;8.54;99.73;99508.41;5051379;28;20118;-70
2023/12/31 07:49:32;;;;;;;2.80;2.30;;;;;;;8.55;98.92;99512.75;5063831;28;20570;-70
2023/12/31 07:52:00;;;;;;;4.07;2.60;;;;;;;8.57;98.97;99510.03;5049966;28;20044;-71
2023/12/31 07:54:27;;;;;;;3.15;2.58;;;;;;;8.58;99.28;99520.50;5048231;28;20653;-70
2023/12/31 07:56:54;;;;;;;2.95;2.53;;;;;;;8.60;99.22;99502.03;5047534;28;20043;-70
2023/12/31 07:59:21;;;;;;;3.15;2.30;;;;;;;8.62;99.00;99493.16;5047617;28;20103;-71
2023/12/31 08:01:48;;;;;;;3.97;2.55;;;;;;;8.67;99.07;99492.97;5031329;28;20040;-70
2023/12/31 08:04:15;;;;;;;4.07;2.47;;;;;;;8.69;98.83;99489.38;5048560;28;20082;-71
2023/12/31 08:06:42;;;;;;;3.65;2.53;;;;;;;8.75;99.22;99477.72;5029673;28;20045;-70
2023/12/31 08:09:12;;;;;;;4.28;2.42;;;;;;;8.83;99.03;99490.50;5029242;28;20045;-70
2023/12/31 08:11:39;;;;;;;4.00;2.97;;;;;;;8.92;99.38;99479.59;5035819;28;20065;-70
2023/12/31 08:14:06;;;;;;;3.50;2.42;;;;;;;9.00;98.29;99482.72;5041413;28;20060;-70
2023/12/31 08:16:34;;;;;;;3.13;2.47;;;;;;;9.07;97.70;99477.19;5057125;28;20040;-70
2023/12/31 08:19:01;;;;;;;3.65;2.30;;;;;;;9.15;97.50;99485.56;5058558;28;20044;-70
2023/12/31 08:21:28;;;;;;;3.28;2.47;;;;;;;9.19;97.23;99475.75;5047314;28;20037;-71
2023/12/31 08:23:55;;;;;;;4.10;2.33;;;;;;;9.20;97.27;99483.59;5029514;28;20048;-70
2023/12/31 08:26:23;;;;;;;3.03;2.28;;;;;;;9.22;96.97;99465.94;5029295;28;20495;-70
2023/12/31 08:28:50;;;;;;;2.72;2.30;;;;;;;9.20;96.90;99456.44;5046987;28;20083;-71
2023/12/31 08:31:17;;;;;;;4.70;2.72;;;;;;;9.21;97.08;99455.50;5030183;28;20049;-70
2023/12/31 08:33:44;;;;;;;5.10;2.50;;;;;;;9.24;97.25;99450.97;5046515;28;20417;-70
2023/12/31 08:36:11;;;;;;;2.92;2.50;;;;;;;9.28;97.60;99470.94;5043166;28;20045;-70
2023/12/31 08:38:38;;;;;;;4.82;2.53;;;;;;;9.32;97.43;99459.34;5047841;28;20045;-71
2023/12/31 08:41:06;;;;;;;3.63;2.42;;;;;;;9.37;97.03;99459.13;5056408;28;20531;-70
2023/12/31 08:43:33;;;;;;;3.28;2.80;;;;;;;9.41;97.42;99465.13;5045586;28;20045;-69
2023/12/31 08:46:04;;;;;;;3.70;2.47;;;;;;;9.47;96.66;99455.13;5047242;28;20045;-69
2023/12/31 08:48:31;;;;;;;3.65;2.58;;;;;;;9.49;96.82;99452.44;5050985;28;20052;-69
2023/12/31 08:50:58;;;;;;;6.43;3.00;;;;;;;9.50;96.58;99459.41;5050610;28;20047;-69
2023/12/31 08:53:25;;;;;;;4.07;2.55;;;;;;;9.54;96.81;99465.38;5034006;28;20047;-69
2023/12/31 08:55:52;;;;;;;3.33;2.53;;;;;;;9.58;96.54;99456.38;5049376;28;20472;-69
2023/12/31 08:58:19;;;;;;;4.90;2.67;;;;;;;9.60;96.44;99462.44;5053684;28;20047;-69
2023/12/31 09:00:47;;;;;;;3.70;2.85;;;;;;;9.59;97.12;99451.06;5048030;28;20052;-69
2023/12/31 09:03:14;;;;;;;3.63;3.00;;;;;;;9.58;97.24;99451.13;5031588;28;20033;-69
2023/12/31 09:05:41;;;;;;;15.05;9.65;;;;;;;9.61;97.78;99457.09;5048375;28;20140;-69
2023/12/31 09:08:08;;;;;;;4.63;3.70;;;;;;;9.64;97.83;99451.69;5037772;28;20041;-69
2023/12/31 09:10:35;;;;;;;6.93;5.47;;;;;;;9.61;98.03;99446.56;5055283;28;20713;-69
2023/12/31 09:13:03;;;;;;;6.50;5.15;;;;;;;9.64;98.63;99443.78;5044928;28;20075;-70
2023/12/31 09:15:31;;;;;;;5.53;4.35;;;;;;;9.64;99.22;99435.91;5047694;28;20532;-70
2023/12/31 09:17:58;;;;;;;3.88;3.47;;;;;;;9.64;99.21;99445.59;5047617;28;20045;-70
2023/12/31 09:20:25;;;;;;;4.50;3.53;;;;;;;9.64;99.70;99446.41;5045425;28;20439;-70
2023/12/31 09:22:53;;;;;;;5.50;3.55;;;;;;;9.63;100.00;99449.97;5044987;28;20074;-70
2023/12/31 09:25:20;;;;;;;5.50;3.28;;;;;;;9.66;100.00;99456.91;5030095;28;20080;-70
2023/12/31 09:27:48;;;;;;;4.65;3.72;;;;;;;9.66;100.00;99454.25;5046357;28;20130;-70
2023/12/31 09:30:15;;;;;;;6.00;3.90;;;;;;;9.62;100.00;99458.78;5045467;28;20044;-71
2023/12/31 09:32:43;;;;;;;4.85;3.70;;;;;;;9.59;100.00;99461.59;5042667;28;20048;-70
2023/12/31 09:35:10;;;;;;;3.90;3.50;;;;;;;9.54;100.00;99463.56;5049596;28;20114;-70
2023/12/31 09:37:37;;;;;;;3.35;2.75;;;;;;;9.51;100.00;99468.13;5048672;28;20048;-70
2023/12/31 09:40:05;;;;;;;5.00;4.00;;;;;;;9.48;100.00;99469.16;5043594;28;20041;-70
2023/12/31 09:42:51;;;;;;;6.53;4.40;;;;;;;9.45;100.00;99453.50;5037206;28;20044;-70
2023/12/31 09:45:23;;;;;;;4.15;3.58;;;;;;;9.44;100.00;99475.47;5029047;28;20049;-70
2023/12/31 09:47:52;;;;;;;5.80;4.25;;;;;;;9.43;100.00;99479.03;5053332;28;20045;-70
2023/12/31 09:50:22;;;;;;;4.90;3.20;;;;;;;9.44;100.00;99481.59;5039935;28;20125;-70
2023/12/31 09:52:59;;;;;;;4.35;2.83;;;;;;;9.43;100.00;99486.91;5045489;28;20052;-70
2023/12/31 09:55:28;;;;;;;3.53;3.22;;;;;;;9.41;100.00;99486.16;5029737;28;20123;-70
2023/12/31 09:57:57;;;;;;;7.25;6.30;;;;;;;9.42;100.00;99472.06;5031474;28;20044;-70
2023/12/31 10:00:24;;;;;;;11.55;10.35;;;;;;;9.42;100.00;99474.69;5045093;28;20037;-70
2023/12/31 10:02:51;;;;;;;35.60;24.40;;;;;;;9.45;100.00;99477.19;5030195;28;20098;-72
2023/12/31 10:05:22;;;;;;;190.25;91.90;;;;;;;9.49;100.00;99478.75;5056410;28;20408;-71
2023/12/31 10:07:49;;;;;;;112.93;69.72;;;;;;;9.54;100.00;99486.41;5047154;28;20041;-71
2023/12/31 10:10:19;;;;;;;107.28;63.03;;;;;;;9.52;100.00;99478.56;5043710;28;20041;-70
2023/12/31 10:12:47;;;;;;;19.63;17.60;;;;;;;9.56;100.00;99480.16;5046282;28;20052;-70
2023/12/31 10:15:14;;;;;;;21.27;19.38;;;;;;;9.58;100.00;99480.06;5040347;28;20192;-71
2023/12/31 10:17:41;;;;;;;13.57;12.30;;;;;;;9.59;100.00;99471.25;5050786;28;20048;-71
2023/12/31 10:20:09;;;;;;;3.05;2.70;;;;;;;9.59;100.00;99469.50;5047199;28;20072;-71
2023/12/31 10:22:37;;;;;;;5.65;5.15;;;;;;;9.62;100.00;99471.13;5050177;28;20923;-71
2023/12/31 10:25:15;;;;;;;3.72;3.03;;;;;;;9.63;100.00;99473.66;5045021;28;20071;-70
2023/12/31 10:27:47;;;;;;;8.05;7.35;;;;;;;9.63;100.00;99472.81;5025024;28;20038;-71
2023/12/31 10:30:14;;;;;;;20.95;19.00;;;;;;;9.64;100.00;99474.53;5032381;28;20593;-71
2023/12/31 10:32:41;;;;;;;12.23;11.18;;;;;;;9.63;100.00;99478.91;5048976;28;20051;-71
2023/12/31 10:35:09;;;;;;;12.50;11.40;;;;;;;9.62;100.00;99471.94;5048445;28;20037;-71
2023/12/31 10:37:36;;;;;;;11.20;10.13;;;;;;;9.63;100.00;99478.09;5048292;28;20037;-71
2023/12/31 10:40:21;;;;;;;4.03;1.75;;;;;;;9.57;100.00;99471.34;5039541;28;20038;-71
2023/12/31 10:42:58;;;;;;;;;;;;;;;9.48;100.00;99461.25;5048608;28;20048;-71
2023/12/31 10:45:26;;;;;;;27.15;16.55;;;;;;;9.46;100.00;99474.47;5040182;28;20181;-71
2023/12/31 10:48:01;;;;;;;62.15;33.97;;;;;;;9.46;100.00;99471.81;5031148;28;20044;-71
2023/12/31 10:50:30;;;;;;;81.03;38.53;;;;;;;9.47;100.00;99464.81;5043630;28;20495;-71
2023/12/31 10:52:59;;;;;;;120.45;54.10;;;;;;;9.50;100.00;99469.06;5043807;28;20705;-71
2023/12/31 10:55:27;;;;;;;255.77;105.45;;;;;;;9.55;100.00;99469.72;5051767;28;20128;-71
2023/12/31 10:57:56;;;;;;;110.13;44.67;;;;;;;9.58;100.00;99474.81;5057636;28;20055;-71
2023/12/31 11:00:24;;;;;;;242.30;97.88;;;;;;;9.60;100.00;99467.69;5051155;28;20051;-70
2023/12/31 11:02:53;;;;;;;240.85;106.45;;;;;;;9.62;100.00;99464.06;5051725;28;20094;-71
2023/12/31 11:05:22;;;;;;;57.92;48.40;;;;;;;9.66;100.00;99472.69;5033072;28;20049;-71
2023/12/31 11:07:52;;;;;;;3.40;3.03;;;;;;;9.70;100.00;99468.13;5041310;28;20099;-71
2023/12/31 11:10:22;;;;;;;2.83;2.00;;;;;;;9.74;100.00;99445.97;5043964;28;20567;-70
2023/12/31 11:12:52;;;;;;;3.67;1.67;;;;;;;9.77;100.00;99462.47;5031247;28;20134;-70
2023/12/31 11:15:25;;;;;;;3.20;1.65;;;;;;;9.76;100.00;99466.03;5029611;28;20044;-71
2023/12/31 11:18:14;;;;;;;3.63;1.10;;;;;;;9.79;100.00;99476.41;5047796;28;20068;-70
2023/12/31 11:21:41;;;;;;;3.08;1.17;;;;;;;9.84;100.00;99462.19;5045214;28;20509;-71
2023/12/31 11:24:18;;;;;;;3.92;1.50;;;;;;;9.84;99.83;99472.69;5003156;28;20060;-71
2023/12/31 11:27:06;;;;;;;4.40;3.53;;;;;;;9.83;100.00;99481.53;5045374;28;20114;-70
2023/12/31 11:29:34;;;;;;;2.47;1.58;;;;;;;9.89;100.00;99479.44;5030413;28;20073;-70
2023/12/31 11:32:04;;;;;;;2.38;1.08;;;;;;;9.90;100.00;99478.53;5030492;28;20033;-71
2023/12/31 11:34:38;;;;;;;2.15;0.95;;;;;;;9.89;100.00;99473.31;5013894;28;20291;-71
2023/12/31 11:37:06;;;;;;;27.27;24.67;;;;;;;9.91;100.00;99468.84;5046871;28;20730;-71